Time;durP1;ratioP1;P1;durP2;ratioP2;P2;SDS_P1;SDS_P2;PMS_P1;PMS_P2;Temp;Humidity;BMP_temperature;BMP_pressure;BME280_temperature;BME280_humidity;BME280_pressure;Samples;Min_cycle;Max_cycle;Signal;HPM_P1;HPM_P2
2023/04/06 00:01:52;;;;;;;9.20;5.40;;;;;;;0.50;75.46;101314.91;105439;1255;98458;-77
2023/04/06 00:04:37;;;;;;;11.60;6.40;;;;;;;0.53;75.41;101315.72;105326;1260;102567;-77
2023/04/06 00:07:23;;;;;;;11.40;6.10;;;;;;;0.57;75.30;101317.91;105303;1259;99118;-77
2023/04/06 00:10:09;;;;;;;10.50;5.70;;;;;;;0.60;75.30;101314.71;105214;1260;97977;-76
2023/04/06 00:12:56;;;;;;;12.80;6.70;;;;;;;0.63;75.18;101313.30;105294;1258;98009;-77
2023/04/06 00:15:42;;;;;;;9.50;6.40;;;;;;;0.64;74.71;101310.70;105367;1254;98461;-77
2023/04/06 00:18:27;;;;;;;14.30;6.50;;;;;;;0.65;74.40;101306.27;105537;1255;102749;-77
2023/04/06 00:21:14;;;;;;;14.90;6.80;;;;;;;0.66;74.18;101305.46;105449;1260;99974;-77
2023/04/06 00:23:59;;;;;;;12.30;7.20;;;;;;;0.68;74.07;101304.27;105236;1261;98099;-78
2023/04/06 00:26:45;;;;;;;12.10;6.10;;;;;;;0.69;73.84;101302.64;105406;1254;98047;-76
2023/04/06 00:29:30;;;;;;;11.10;6.00;;;;;;;0.69;74.15;101301.58;105500;1256;98497;-77
2023/04/06 00:32:15;;;;;;;10.80;6.40;;;;;;;0.70;74.38;101298.70;105290;1258;102605;-78
2023/04/06 00:35:03;;;;;;;8.70;5.20;;;;;;;0.70;74.76;101296.10;105313;1255;100369;-78
2023/04/06 00:37:48;;;;;;;12.60;6.50;;;;;;;0.69;74.77;101290.68;105323;1256;97948;-77
2023/04/06 00:40:35;;;;;;;9.70;5.90;;;;;;;0.69;74.84;101288.61;105375;1257;98080;-77
2023/04/06 00:43:20;;;;;;;8.80;6.10;;;;;;;0.69;74.69;101289.32;105234;1260;98402;-76
2023/04/06 00:46:06;;;;;;;10.90;6.40;;;;;;;0.69;74.45;101291.92;105209;1261;102633;-76
2023/04/06 00:48:52;;;;;;;10.80;5.40;;;;;;;0.70;74.21;101290.98;105256;1257;99158;-76
2023/04/06 00:51:37;;;;;;;9.50;6.20;;;;;;;0.72;74.16;101288.55;105060;1261;99439;-77
2023/04/06 00:54:22;;;;;;;12.00;6.30;;;;;;;0.75;73.97;101289.77;105160;1255;97976;-77
2023/04/06 00:57:08;;;;;;;10.50;6.60;;;;;;;0.75;73.97;101288.85;105191;1260;99274;-77
2023/04/06 00:59:54;;;;;;;10.70;5.90;;;;;;;0.77;74.00;101289.27;105143;1258;101302;-75
2023/04/06 01:02:40;;;;;;;11.00;6.50;;;;;;;0.75;74.12;101283.95;105492;1256;99086;-76
2023/04/06 01:05:26;;;;;;;16.30;7.10;;;;;;;0.71;74.34;101282.27;105164;1260;99397;-78
2023/04/06 01:08:14;;;;;;;11.70;6.10;;;;;;;0.71;74.43;101280.73;105334;1268;98562;-78
2023/04/06 01:11:03;;;;;;;11.00;6.60;;;;;;;0.73;74.67;101279.00;105199;1258;99247;-76
2023/04/06 01:13:49;;;;;;;14.00;6.90;;;;;;;0.72;74.71;101274.82;105283;1256;101458;-77
2023/04/06 01:16:44;;;;;;;10.20;6.30;;;;;;;0.73;74.02;101274.59;105218;1258;100380;-77
2023/04/06 01:19:33;;;;;;;14.20;6.70;;;;;;;0.76;74.06;101270.55;105184;1258;98383;-76
2023/04/06 01:22:19;;;;;;;11.30;6.30;;;;;;;0.77;73.94;101271.66;105301;1256;97952;-77
2023/04/06 01:25:15;;;;;;;11.70;6.20;;;;;;;0.79;73.96;101268.52;105231;1261;98487;-76
2023/04/06 01:28:08;;;;;;;14.70;6.50;;;;;;;0.84;73.77;101271.23;105348;1256;102957;-77
2023/04/06 01:31:17;;;;;;;11.80;6.50;;;;;;;0.86;73.70;101269.14;105175;1261;99070;-76
2023/04/06 01:34:07;;;;;;;11.00;6.00;;;;;;;0.85;73.58;101268.83;105161;1255;99104;-77
2023/04/06 01:36:53;;;;;;;14.30;6.20;;;;;;;0.86;73.34;101269.13;105250;1256;98483;-76
2023/04/06 01:39:44;;;;;;;12.70;6.10;;;;;;;0.85;72.38;101268.98;105372;1261;98058;-77
2023/04/06 01:42:31;;;;;;;12.00;6.60;;;;;;;0.84;72.21;101267.29;105185;1259;102612;-77
2023/04/06 01:45:16;;;;;;;11.40;6.00;;;;;;;0.87;72.54;101265.31;105332;1259;100328;-77
2023/04/06 01:48:03;;;;;;;8.70;5.20;;;;;;;0.90;72.96;101261.80;105223;1258;98982;-77
2023/04/06 01:50:49;;;;;;;11.50;6.00;;;;;;;0.90;72.89;101263.17;105425;1255;99239;-77
2023/04/06 01:53:38;;;;;;;8.90;5.70;;;;;;;0.90;73.06;101255.51;105311;1260;98495;-77
2023/04/06 01:56:25;;;;;;;12.00;6.30;;;;;;;0.91;73.39;101254.70;105265;1259;101368;-76
2023/04/06 01:59:20;;;;;;;16.50;7.50;;;;;;;0.94;73.37;101250.77;105365;1258;100318;-77
2023/04/06 02:02:06;;;;;;;14.40;6.30;;;;;;;0.97;73.06;101250.77;105293;1256;98007;-77
2023/04/06 02:04:52;;;;;;;13.40;7.00;;;;;;;0.98;73.06;101251.20;105438;1255;98032;-77
2023/04/06 02:07:38;;;;;;;13.20;8.00;;;;;;;0.98;72.78;101248.20;105678;1261;97884;-78
2023/04/06 02:10:24;;;;;;;12.10;7.30;;;;;;;0.98;72.60;101245.20;105575;1261;101406;-78
2023/04/06 02:13:09;;;;;;;13.20;6.50;;;;;;;1.00;72.58;101245.91;105328;1260;99859;-77
2023/04/06 02:15:55;;;;;;;11.20;6.40;;;;;;;1.02;72.67;101243.86;105276;1256;98455;-76
2023/04/06 02:18:41;;;;;;;13.40;7.80;;;;;;;1.04;72.78;101239.54;105278;1255;97971;-78
2023/04/06 02:21:26;;;;;;;13.40;7.50;;;;;;;1.03;72.76;101240.61;105383;1261;98587;-76
2023/04/06 02:24:11;;;;;;;16.00;7.80;;;;;;;1.02;72.80;101237.70;105411;1261;102614;-76
2023/04/06 02:26:57;;;;;;;16.00;7.20;;;;;;;1.03;72.96;101235.89;105601;1255;100307;-77
2023/04/06 02:29:42;;;;;;;11.00;7.10;;;;;;;1.04;73.09;101235.48;105251;1255;98703;-77
2023/04/06 02:32:28;;;;;;;14.20;7.00;;;;;;;1.04;72.97;101232.50;105228;1261;97881;-76
2023/04/06 02:35:15;;;;;;;14.30;7.60;;;;;;;1.02;72.86;101232.23;105201;1259;98731;-77
2023/04/06 02:38:00;;;;;;;15.80;7.00;;;;;;;1.03;72.94;101230.58;105314;1260;101291;-78
2023/04/06 02:40:46;;;;;;;14.00;7.30;;;;;;;1.04;73.11;101228.05;105470;1271;99142;-77
2023/04/06 02:43:38;;;;;;;16.40;7.40;;;;;;;1.04;72.79;101229.45;105392;1261;98767;-77
2023/04/06 02:46:28;;;;;;;13.90;7.20;;;;;;;1.04;72.62;101225.96;105288;1261;98039;-79
2023/04/06 02:49:14;;;;;;;15.30;7.50;;;;;;;1.04;72.57;101227.73;105307;1261;97988;-75
2023/04/06 02:52:00;;;;;;;12.50;7.60;;;;;;;1.04;72.49;101225.92;106670;1256;102604;-77
2023/04/06 02:54:50;;;;;;;14.50;7.80;;;;;;;1.04;72.40;101225.39;105509;1255;99215;-77
2023/04/06 02:57:40;;;;;;;14.70;7.50;;;;;;;1.04;72.48;101225.09;105524;1256;98721;-76
2023/04/06 03:00:26;;;;;;;13.80;7.00;;;;;;;1.02;72.37;101228.21;105340;1261;97928;-78
2023/04/06 03:03:12;;;;;;;14.30;6.90;;;;;;;1.00;72.56;101228.00;105515;1256;98012;-76
2023/04/06 03:05:59;;;;;;;11.20;6.60;;;;;;;0.99;72.71;101232.11;105326;1261;102707;-76
2023/04/06 03:08:47;;;;;;;13.30;7.30;;;;;;;0.97;72.68;101229.30;105355;1261;100789;-77
2023/04/06 03:11:32;;;;;;;11.60;6.90;;;;;;;0.93;72.52;101232.39;105335;1259;98442;-77
2023/04/06 03:14:21;;;;;;;13.00;7.60;;;;;;;0.91;72.67;101235.23;105322;1259;98000;-75
2023/04/06 03:17:08;;;;;;;12.30;6.90;;;;;;;0.90;72.56;101234.21;105797;1260;99250;-77
2023/04/06 03:19:54;;;;;;;14.10;7.10;;;;;;;0.89;72.58;101235.69;105652;1255;102626;-76
2023/04/06 03:22:40;;;;;;;15.50;6.90;;;;;;;0.88;72.49;101234.17;105330;1261;100354;-77
2023/04/06 03:25:28;;;;;;;15.50;7.90;;;;;;;0.88;72.66;101234.88;105290;1259;99248;-77
2023/04/06 03:28:17;;;;;;;10.40;6.80;;;;;;;0.88;72.88;101237.54;106495;1255;98069;-77
2023/04/06 03:31:08;;;;;;;11.40;6.90;;;;;;;0.88;72.76;101240.72;105413;1276;97816;-76
2023/04/06 03:34:29;;;;;;;17.10;8.20;;;;;;;0.88;72.74;101242.64;105077;1264;102602;-77
2023/04/06 03:37:15;;;;;;;12.90;6.40;;;;;;;0.89;72.67;101244.15;105412;1256;100745;-76
2023/04/06 03:40:06;;;;;;;14.70;6.40;;;;;;;0.88;72.57;101242.06;105401;1254;99144;-77
2023/04/06 03:42:51;;;;;;;14.20;7.60;;;;;;;0.89;72.66;101239.91;105788;1260;97962;-76
2023/04/06 03:45:37;;;;;;;13.50;6.90;;;;;;;0.88;72.51;101242.42;105247;1260;98293;-78
2023/04/06 03:48:23;;;;;;;15.50;7.70;;;;;;;0.87;72.55;101244.27;105397;1258;102602;-77
2023/04/06 03:51:09;;;;;;;16.30;7.40;;;;;;;0.86;72.58;101242.91;105412;1256;99063;-77
2023/04/06 03:53:54;;;;;;;11.30;6.70;;;;;;;0.85;72.90;101243.88;105376;1256;98948;-77
2023/04/06 03:56:39;;;;;;;14.40;7.20;;;;;;;0.85;72.83;101243.51;105328;1260;97989;-78
2023/04/06 03:59:25;;;;;;;11.80;6.50;;;;;;;0.85;72.84;101242.30;105401;1258;98481;-76
2023/04/06 04:02:11;;;;;;;17.90;7.60;;;;;;;0.84;72.99;101244.80;105398;1254;102908;-78
2023/04/06 04:04:57;;;;;;;8.80;6.30;;;;;;;0.85;73.08;101245.99;105529;1256;99709;-77
2023/04/06 04:07:44;;;;;;;13.30;6.80;;;;;;;0.86;73.08;101241.88;105528;1259;98088;-76
2023/04/06 04:10:30;;;;;;;10.90;6.90;;;;;;;0.89;73.17;101244.67;105566;1261;99198;-77
2023/04/06 04:13:15;;;;;;;13.80;8.10;;;;;;;0.91;73.32;101240.43;105587;1258;98478;-76
2023/04/06 04:16:02;;;;;;;12.70;7.00;;;;;;;0.92;73.22;101243.35;105550;1261;102705;-77
2023/04/06 04:18:48;;;;;;;11.40;6.70;;;;;;;0.92;73.37;101243.36;105612;1261;100589;-78
2023/04/06 04:21:42;;;;;;;11.00;7.00;;;;;;;0.91;73.46;101240.94;105440;1259;98693;-78
2023/04/06 04:24:28;;;;;;;12.10;7.20;;;;;;;0.92;73.39;101244.39;105352;1255;98054;-77
2023/04/06 04:27:14;;;;;;;12.40;7.00;;;;;;;0.94;73.58;101245.00;105276;1260;99587;-77
2023/04/06 04:30:00;;;;;;;11.10;6.80;;;;;;;0.93;73.69;101243.84;105277;1256;101439;-78
2023/04/06 04:32:46;;;;;;;13.80;6.90;;;;;;;0.92;73.59;101249.34;105258;1261;101344;-77
2023/04/06 04:35:32;;;;;;;14.10;7.10;;;;;;;0.92;73.79;101247.96;105263;1261;98401;-76
2023/04/06 04:38:18;;;;;;;15.20;7.90;;;;;;;0.89;73.86;101246.89;105184;1260;98080;-77
2023/04/06 04:41:05;;;;;;;15.00;7.20;;;;;;;0.87;74.00;101242.16;105211;1256;97980;-76
2023/04/06 04:43:51;;;;;;;14.40;6.80;;;;;;;0.85;74.14;101240.70;105273;1259;102094;-77
2023/04/06 04:46:41;;;;;;;13.90;8.00;;;;;;;0.84;74.33;101240.61;105306;1258;100350;-77
2023/04/06 04:49:27;;;;;;;19.10;8.70;;;;;;;0.83;74.48;101239.64;105334;1261;98941;-77
2023/04/06 04:52:14;;;;;;;18.30;8.70;;;;;;;0.83;74.65;101236.63;105253;1260;97872;-76
2023/04/06 04:55:17;;;;;;;17.90;8.40;;;;;;;0.83;74.89;101237.16;105197;1260;98408;-76
2023/04/06 04:58:05;;;;;;;17.80;8.30;;;;;;;0.84;75.04;101234.79;105052;1258;102443;-77
2023/04/06 05:01:04;;;;;;;14.00;8.60;;;;;;;0.86;75.37;101232.52;105280;1258;100442;-77
2023/04/06 05:03:50;;;;;;;17.00;8.50;;;;;;;0.88;75.47;101233.29;105256;1260;98574;-76
2023/04/06 05:06:36;;;;;;;15.60;7.40;;;;;;;0.88;75.64;101235.40;105283;1261;97952;-77
2023/04/06 05:09:22;;;;;;;13.80;9.10;;;;;;;0.87;75.85;101231.20;105241;1260;98495;-76
2023/04/06 05:12:08;;;;;;;13.90;8.00;;;;;;;0.88;76.02;101233.10;105250;1260;102186;-76
2023/04/06 05:14:58;;;;;;;17.50;8.30;;;;;;;0.89;76.19;101232.48;105267;1262;99107;-76
2023/04/06 05:17:44;;;;;;;16.80;8.10;;;;;;;0.91;76.33;101230.77;105414;1260;98984;-76
2023/04/06 05:20:31;;;;;;;13.60;7.80;;;;;;;0.94;76.48;101231.24;105414;1259;98290;-76
2023/04/06 05:23:17;;;;;;;14.90;8.00;;;;;;;0.96;76.43;101227.03;105278;1260;97762;-77
2023/04/06 05:26:03;;;;;;;13.80;7.00;;;;;;;0.99;76.70;101227.71;105280;1264;101456;-76
2023/04/06 05:28:49;;;;;;;17.70;9.00;;;;;;;1.02;76.98;101228.75;105517;1259;99179;-77
2023/04/06 05:31:36;;;;;;;14.80;7.50;;;;;;;1.05;77.19;101227.47;105395;1258;98963;-77
2023/04/06 05:34:21;;;;;;;13.10;8.00;;;;;;;1.08;77.08;101227.98;105403;1256;99235;-77
2023/04/06 05:37:08;;;;;;;11.30;7.00;;;;;;;1.11;77.40;101223.87;105314;1260;98213;-77
2023/04/06 05:39:55;;;;;;;15.80;9.00;;;;;;;1.14;77.60;101226.98;105262;1261;102551;-76
2023/04/06 05:42:42;;;;;;;16.40;7.60;;;;;;;1.18;77.74;101230.04;105289;1261;100340;-78
2023/04/06 05:45:28;;;;;;;13.70;7.70;;;;;;;1.22;77.67;101228.17;105087;1261;97996;-77
2023/04/06 05:48:15;;;;;;;13.30;7.20;;;;;;;1.25;77.76;101223.17;105194;1261;99181;-77
2023/04/06 05:51:01;;;;;;;16.50;8.10;;;;;;;1.27;77.83;101215.80;105382;1254;97958;-77
2023/04/06 05:53:54;;;;;;;12.70;7.60;;;;;;;1.28;77.92;101216.59;105328;1257;101563;-77
2023/04/06 05:56:40;;;;;;;13.30;7.20;;;;;;;1.29;77.97;101214.40;105232;1262;99300;-78
2023/04/06 05:59:27;;;;;;;11.80;7.30;;;;;;;1.33;78.08;101214.48;105215;1259;97953;-77
2023/04/06 06:02:13;;;;;;;15.80;6.90;;;;;;;1.39;78.48;101211.35;105338;1260;98030;-77
2023/04/06 06:05:01;;;;;;;9.60;6.90;;;;;;;1.46;78.59;101204.54;105335;1260;98510;-76
2023/04/06 06:07:47;;;;;;;10.10;6.30;;;;;;;1.52;78.66;101209.14;105231;1261;102586;-77
2023/04/06 06:10:32;;;;;;;12.20;6.40;;;;;;;1.59;78.60;101208.85;105334;1257;100798;-76
2023/04/06 06:13:17;;;;;;;12.30;6.90;;;;;;;1.66;78.40;101207.25;105295;1260;97961;-77
2023/04/06 06:16:04;;;;;;;10.90;6.30;;;;;;;1.72;78.39;101197.96;105428;1260;97967;-76
2023/04/06 06:18:51;;;;;;;11.90;6.40;;;;;;;1.79;78.39;101193.60;105977;1260;98487;-78
2023/04/06 06:21:36;;;;;;;9.40;6.10;;;;;;;1.86;78.14;101193.23;105464;1260;102577;-77
2023/04/06 06:24:23;;;;;;;12.10;7.60;;;;;;;1.91;77.71;101192.34;105534;1263;100118;-77
2023/04/06 06:27:10;;;;;;;10.30;5.80;;;;;;;1.95;77.38;101192.30;105487;1260;98052;-77
2023/04/06 06:29:56;;;;;;;10.10;6.00;;;;;;;2.01;77.29;101197.69;105865;1260;97878;-77
2023/04/06 06:32:42;;;;;;;9.80;6.40;;;;;;;2.08;76.97;101196.26;105384;1259;98470;-77
2023/04/06 06:35:27;;;;;;;10.20;5.80;;;;;;;2.16;76.74;101195.62;105368;1261;103203;-76
2023/04/06 06:38:13;;;;;;;9.40;5.00;;;;;;;2.23;75.89;101195.45;105348;1264;99222;-77
2023/04/06 06:40:59;;;;;;;7.90;5.20;;;;;;;2.27;75.40;101193.30;105419;1260;98451;-77
2023/04/06 06:43:47;;;;;;;8.30;4.90;;;;;;;2.37;75.38;101193.78;105432;1259;98016;-75
2023/04/06 06:46:32;;;;;;;10.90;5.40;;;;;;;2.44;74.47;101189.69;105145;1261;99142;-76
2023/04/06 06:49:19;;;;;;;7.20;4.40;;;;;;;2.51;73.94;101191.49;105324;1260;102313;-76
2023/04/06 06:52:04;;;;;;;9.30;4.20;;;;;;;2.54;73.20;101189.07;105421;1258;100540;-77
2023/04/06 06:54:50;;;;;;;6.80;4.40;;;;;;;2.58;72.74;101188.39;105140;1265;97873;-77
2023/04/06 06:57:38;;;;;;;9.80;4.80;;;;;;;2.62;72.66;101190.40;105295;1261;98076;-78
2023/04/06 07:00:24;;;;;;;7.50;3.70;;;;;;;2.65;71.98;101190.65;105344;1259;98423;-77
2023/04/06 07:03:10;;;;;;;10.30;4.90;;;;;;;2.71;71.99;101182.41;105507;1269;102946;-77
2023/04/06 07:05:56;;;;;;;8.60;5.10;;;;;;;2.79;71.26;101179.69;105710;1261;99227;-78
2023/04/06 07:08:42;;;;;;;6.70;4.20;;;;;;;2.87;70.74;101179.02;105844;1256;99475;-82
2023/04/06 07:11:29;;;;;;;8.40;4.20;;;;;;;2.93;70.13;101178.64;106230;1254;98662;-84
2023/04/06 07:14:16;;;;;;;5.70;3.80;;;;;;;2.99;69.89;101173.96;105937;1255;97954;-83
2023/04/06 07:17:02;;;;;;;7.30;3.70;;;;;;;3.02;69.08;101175.43;106265;1260;101325;-78
2023/04/06 07:19:48;;;;;;;8.00;3.80;;;;;;;3.04;68.84;101176.39;105625;1263;99772;-78
2023/04/06 07:22:34;;;;;;;7.20;3.30;;;;;;;3.06;68.02;101167.20;105719;1260;98378;-77
2023/04/06 07:25:19;;;;;;;4.90;3.50;;;;;;;3.11;67.69;101164.52;106381;1258;97950;-82
2023/04/06 07:28:05;;;;;;;5.10;3.20;;;;;;;3.16;66.98;101167.77;106247;1260;98581;-81
2023/04/06 07:30:51;;;;;;;5.50;3.20;;;;;;;3.18;66.01;101166.98;106452;1260;102051;-79
2023/04/06 07:33:37;;;;;;;4.30;2.60;;;;;;;3.21;65.99;101167.01;106175;1259;99128;-78
2023/04/06 07:36:23;;;;;;;8.20;3.20;;;;;;;3.30;66.03;101168.77;105639;1254;98999;-81
2023/04/06 07:39:09;;;;;;;5.00;3.10;;;;;;;3.36;65.63;101173.17;106118;1261;98620;-79
2023/04/06 07:41:55;;;;;;;6.10;3.00;;;;;;;3.37;65.30;101175.06;105614;1254;98396;-76
2023/04/06 07:44:40;;;;;;;10.10;3.80;;;;;;;3.38;65.09;101171.26;105476;1254;102102;-77
2023/04/06 07:47:27;;;;;;;6.50;3.10;;;;;;;3.41;65.03;101170.48;105458;1259;99062;-76
2023/04/06 07:50:13;;;;;;;6.90;2.60;;;;;;;3.47;64.87;101166.09;105318;1259;99331;-78
2023/04/06 07:52:59;;;;;;;11.30;3.70;;;;;;;3.51;64.86;101167.87;105219;1260;97933;-77
2023/04/06 07:55:45;;;;;;;5.10;3.20;;;;;;;3.53;64.47;101169.11;105354;1255;97958;-77
2023/04/06 07:58:31;;;;;;;5.40;3.40;;;;;;;3.58;64.47;101165.34;105415;1258;101337;-76
2023/04/06 08:01:17;;;;;;;6.10;2.70;;;;;;;3.64;64.11;101163.74;105410;1258;100547;-77
2023/04/06 08:04:02;;;;;;;4.40;3.10;;;;;;;3.66;63.88;101158.29;105495;1260;98009;-77
2023/04/06 08:06:47;;;;;;;6.60;3.10;;;;;;;3.71;63.61;101154.89;105459;1261;98005;-77
2023/04/06 08:09:33;;;;;;;6.00;3.30;;;;;;;3.74;63.10;101157.27;105484;1260;99342;-77
2023/04/06 08:12:19;;;;;;;6.60;2.80;;;;;;;3.72;62.73;101162.01;105584;1254;102615;-76
2023/04/06 08:15:05;;;;;;;7.40;3.20;;;;;;;3.72;62.58;101155.30;105527;1254;99127;-76
2023/04/06 08:17:51;;;;;;;7.00;3.10;;;;;;;3.73;62.92;101154.62;105309;1260;97922;-75
2023/04/06 08:20:36;;;;;;;4.60;2.90;;;;;;;3.76;62.89;101150.37;105323;1258;97787;-80
2023/04/06 08:23:22;;;;;;;4.20;3.00;;;;;;;3.78;62.56;101144.36;106501;1260;97974;-80
2023/04/06 08:26:07;;;;;;;4.70;2.90;;;;;;;3.82;62.41;101145.98;106583;1255;102251;-81
2023/04/06 08:28:53;;;;;;;4.80;2.80;;;;;;;3.82;62.15;101146.66;106409;1257;99346;-84
2023/04/06 08:31:38;;;;;;;4.90;3.00;;;;;;;3.81;61.61;101147.12;106194;1257;97934;-79
2023/04/06 08:34:24;;;;;;;5.70;3.10;;;;;;;3.78;61.76;101141.52;105732;1254;97946;-76
2023/04/06 08:37:09;;;;;;;4.40;3.30;;;;;;;3.81;62.27;101134.35;105676;1260;98038;-76
2023/04/06 08:39:55;;;;;;;5.40;3.20;;;;;;;3.90;62.65;101142.42;105617;1260;101429;-79
2023/04/06 08:42:46;;;;;;;8.80;3.80;;;;;;;3.96;62.53;101144.95;106485;1257;99212;-81
2023/04/06 08:45:31;;;;;;;4.60;3.30;;;;;;;4.00;62.41;101137.02;106491;1257;99187;-81
2023/04/06 08:48:18;;;;;;;4.60;3.50;;;;;;;4.04;62.54;101139.14;105862;1257;97956;-80
2023/04/06 08:51:04;;;;;;;7.20;3.60;;;;;;;4.13;62.73;101142.19;105925;1255;99667;-80
2023/04/06 08:53:50;;;;;;;6.60;3.90;;;;;;;4.16;62.23;101141.77;106324;1257;101311;-86
2023/04/06 08:56:38;;;;;;;7.10;4.00;;;;;;;4.12;62.52;101142.30;106211;1260;100372;-80
2023/04/06 08:59:25;;;;;;;5.50;3.30;;;;;;;4.05;63.12;101144.52;106203;1254;99321;-80
2023/04/06 09:02:17;;;;;;;8.00;3.40;;;;;;;4.00;63.13;101139.13;106319;1254;97946;-80
2023/04/06 09:05:02;;;;;;;5.40;3.50;;;;;;;3.95;63.40;101135.79;105869;1254;99374;-78
2023/04/06 09:07:48;;;;;;;5.50;3.30;;;;;;;3.95;63.85;101137.44;105743;1261;101419;-80
2023/04/06 09:10:34;;;;;;;5.20;3.50;;;;;;;3.97;63.74;101131.20;105899;1254;99067;-78
2023/04/06 09:13:19;;;;;;;6.10;3.10;;;;;;;3.97;63.78;101127.92;105676;1254;99250;-78
2023/04/06 09:16:06;;;;;;;5.20;3.00;;;;;;;3.97;63.78;101121.91;105735;1254;97955;-78
2023/04/06 09:18:52;;;;;;;6.50;4.00;;;;;;;4.02;64.14;101121.68;105934;1257;99129;-80
2023/04/06 09:21:39;;;;;;;8.40;3.20;;;;;;;4.05;63.81;101122.59;106446;1258;101321;-80
2023/04/06 09:24:26;;;;;;;6.00;3.70;;;;;;;4.06;64.17;101117.93;106289;1258;99070;-81
2023/04/06 09:27:12;;;;;;;6.40;3.60;;;;;;;4.05;64.26;101121.16;106444;1260;97709;-81
2023/04/06 09:30:05;;;;;;;7.20;4.00;;;;;;;4.07;64.76;101122.60;106312;1257;97987;-81
2023/04/06 09:32:53;;;;;;;5.60;3.50;;;;;;;4.13;64.99;101121.71;106234;1256;98397;-79
2023/04/06 09:35:38;;;;;;;5.70;3.00;;;;;;;4.12;64.93;101119.50;106554;1254;101387;-81
2023/04/06 09:38:24;;;;;;;6.80;3.20;;;;;;;4.08;64.97;101120.09;106222;1260;99224;-81
2023/04/06 09:41:20;;;;;;;6.30;3.70;;;;;;;4.08;65.59;101128.02;106461;1254;99427;-80
2023/04/06 09:44:12;;;;;;;6.10;3.90;;;;;;;4.07;65.62;101121.56;106384;1257;97834;-80
2023/04/06 09:46:57;;;;;;;6.30;3.60;;;;;;;4.06;65.91;101115.10;106429;1259;134999;-81
2023/04/06 09:49:43;;;;;;;6.70;4.50;;;;;;;4.05;66.12;101115.14;106481;1255;102082;-81
2023/04/06 09:52:41;;;;;;;7.20;3.80;;;;;;;4.03;66.16;101114.15;105925;1258;99787;-82
2023/04/06 09:55:57;;;;;;;7.90;3.60;;;;;;;3.98;66.61;101120.42;106641;1260;97997;-82
2023/04/06 09:58:45;;;;;;;6.30;4.30;;;;;;;3.90;66.65;101114.87;106407;1259;99311;-86
2023/04/06 10:01:35;;;;;;;6.40;3.50;;;;;;;3.85;66.76;101110.20;106112;1256;98048;-78
2023/04/06 10:04:24;;;;;;;6.40;3.40;;;;;;;3.84;67.57;101108.70;106376;1257;101915;-82
2023/04/06 10:07:11;;;;;;;7.50;3.80;;;;;;;3.87;67.64;101108.05;106282;1260;99076;-81
2023/04/06 10:10:00;;;;;;;7.40;3.60;;;;;;;3.89;67.74;101105.91;106267;1257;98948;-80
2023/04/06 10:12:47;;;;;;;10.90;4.20;;;;;;;3.87;68.34;101104.57;106849;1257;97121;-81
2023/04/06 10:15:33;;;;;;;5.80;3.40;;;;;;;3.93;68.94;101103.45;106429;1260;98436;-84
2023/04/06 10:18:20;;;;;;;7.60;4.30;;;;;;;3.99;69.13;101097.89;106318;1257;101351;-81
2023/04/06 10:21:20;;;;;;;6.70;3.90;;;;;;;4.00;69.47;101094.10;106394;1257;100361;-82
2023/04/06 10:24:10;;;;;;;8.60;5.20;;;;;;;4.01;69.85;101094.34;106137;1262;99001;-80
2023/04/06 10:26:58;;;;;;;7.90;4.70;;;;;;;3.96;70.16;101092.17;105655;1257;97895;-78
2023/04/06 10:29:48;;;;;;;7.40;4.00;;;;;;;3.91;70.83;101091.98;105883;1258;98479;-80
2023/04/06 10:32:38;;;;;;;6.50;4.00;;;;;;;3.83;71.36;101093.04;106551;1255;101253;-82
2023/04/06 10:35:35;;;;;;;10.40;4.90;;;;;;;3.72;72.16;101089.61;106422;1258;100129;-79
2023/04/06 10:38:33;;;;;;;7.10;4.60;;;;;;;3.63;73.10;101087.02;106395;1254;97953;-84
2023/04/06 10:41:18;;;;;;;11.40;5.10;;;;;;;3.46;73.96;101089.17;106088;1256;99164;-81
2023/04/06 10:44:04;;;;;;;8.50;5.10;;;;;;;3.26;74.98;101084.72;106266;1260;97945;-81
2023/04/06 10:47:00;;;;;;;9.00;5.90;;;;;;;3.10;76.17;101081.61;106267;1258;101339;-83
2023/04/06 10:49:45;;;;;;;11.60;5.90;;;;;;;2.96;77.26;101082.24;106190;1257;99167;-82
2023/04/06 10:52:31;;;;;;;8.60;6.30;;;;;;;2.84;78.03;101079.92;106444;1260;99020;-81
2023/04/06 10:55:16;;;;;;;8.40;5.10;;;;;;;2.76;78.94;101075.52;106383;1257;97955;-87
2023/04/06 10:58:06;;;;;;;10.10;4.90;;;;;;;2.71;79.62;101073.66;105769;1254;98044;-83
2023/04/06 11:00:51;;;;;;;7.10;4.80;;;;;;;2.66;80.41;101072.45;106445;1257;101417;-79
2023/04/06 11:03:44;;;;;;;7.80;5.50;;;;;;;2.64;81.39;101071.55;105849;1260;100355;-80
2023/04/06 11:06:32;;;;;;;9.40;5.40;;;;;;;2.64;82.27;101073.28;106173;1260;98906;-78
2023/04/06 11:09:29;;;;;;;8.90;4.80;;;;;;;2.64;82.73;101073.84;106306;1253;98003;-78
2023/04/06 11:12:22;;;;;;;9.10;5.40;;;;;;;2.62;83.27;101068.23;105786;1255;97969;-78
2023/04/06 11:15:07;;;;;;;8.90;5.00;;;;;;;2.63;84.17;101064.59;105763;1254;102611;-77
2023/04/06 11:17:53;;;;;;;7.80;5.20;;;;;;;2.64;84.78;101062.54;105799;1260;99075;-77
2023/04/06 11:20:39;;;;;;;9.10;5.40;;;;;;;2.64;84.93;101052.02;105549;1255;98631;-77
2023/04/06 11:23:25;;;;;;;9.00;5.30;;;;;;;2.64;85.63;101048.11;105734;1256;99181;-79
2023/04/06 11:26:14;;;;;;;6.60;4.30;;;;;;;2.64;86.06;101046.91;106245;1258;97953;-81
2023/04/06 11:29:00;;;;;;;7.80;5.20;;;;;;;2.63;86.40;101044.83;106690;1254;102077;-81
2023/04/06 11:31:48;;;;;;;8.40;5.00;;;;;;;2.66;86.92;101039.66;106357;1256;100699;-79
2023/04/06 11:34:38;;;;;;;8.30;4.90;;;;;;;2.69;87.51;101035.00;105787;1256;98786;-77
2023/04/06 11:37:27;;;;;;;7.60;4.50;;;;;;;2.71;87.65;101031.67;105587;1260;97942;-76
2023/04/06 11:40:12;;;;;;;8.50;4.90;;;;;;;2.69;88.08;101029.73;105735;1254;98567;-78
2023/04/06 11:42:58;;;;;;;7.40;5.20;;;;;;;2.73;88.83;101028.88;105865;1257;101997;-78
2023/04/06 11:45:44;;;;;;;10.80;6.50;;;;;;;2.78;88.99;101024.39;105883;1256;99753;-76
2023/04/06 11:48:31;;;;;;;7.20;4.90;;;;;;;2.81;89.28;101026.44;106077;1254;97908;-77
2023/04/06 11:51:29;;;;;;;11.10;6.40;;;;;;;2.83;89.57;101022.34;105871;1255;98775;-84
2023/04/06 11:54:14;;;;;;;5.60;4.10;;;;;;;2.88;90.16;101022.42;106363;1254;99081;-78
2023/04/06 11:57:04;;;;;;;8.60;5.30;;;;;;;2.96;90.42;101019.70;105447;1260;101367;-77
2023/04/06 11:59:51;;;;;;;5.70;4.40;;;;;;;3.01;90.54;101018.50;105526;1260;100157;-76
2023/04/06 12:02:37;;;;;;;8.80;5.80;;;;;;;3.05;90.80;101010.95;105621;1258;99953;-76
2023/04/06 12:05:23;;;;;;;10.00;5.60;;;;;;;3.11;91.11;101006.39;105540;1258;97866;-78
2023/04/06 12:08:09;;;;;;;7.40;5.40;;;;;;;3.15;90.87;101002.55;105688;1254;98073;-77
2023/04/06 12:10:54;;;;;;;6.60;5.40;;;;;;;3.19;90.91;100999.39;105549;1257;101598;-76
2023/04/06 12:13:40;;;;;;;9.50;5.30;;;;;;;3.22;91.15;100995.63;105720;1256;99121;-76
2023/04/06 12:16:26;;;;;;;10.80;5.30;;;;;;;3.22;90.75;100995.41;106097;1258;98060;-76
2023/04/06 12:19:11;;;;;;;11.10;5.50;;;;;;;3.23;90.96;100990.36;105413;1260;98477;-76
2023/04/06 12:21:57;;;;;;;8.20;5.70;;;;;;;3.24;90.79;100986.77;105390;1258;97894;-77
2023/04/06 12:24:43;;;;;;;8.50;5.90;;;;;;;3.26;90.83;100990.35;105609;1258;102390;-79
2023/04/06 12:27:28;;;;;;;8.70;5.40;;;;;;;3.29;91.04;100987.09;106518;1255;99074;-78
2023/04/06 12:30:14;;;;;;;8.50;5.90;;;;;;;3.32;91.50;100989.08;105609;1256;99523;-78
2023/04/06 12:33:00;;;;;;;8.30;5.80;;;;;;;3.37;92.05;100983.34;105351;1259;98074;-78
2023/04/06 12:35:46;;;;;;;7.90;5.20;;;;;;;3.42;92.00;100977.57;105628;1260;99127;-77
2023/04/06 12:38:31;;;;;;;15.30;6.20;;;;;;;3.46;92.10;100967.89;105852;1258;102699;-77
2023/04/06 12:41:17;;;;;;;10.30;6.40;;;;;;;3.48;92.19;100968.43;105464;1256;99148;-77
2023/04/06 12:44:03;;;;;;;9.30;6.40;;;;;;;3.50;92.41;100964.26;105362;1258;98062;-76
2023/04/06 12:46:50;;;;;;;11.90;6.80;;;;;;;3.49;91.92;100964.09;105346;1255;99305;-76
2023/04/06 12:49:35;;;;;;;8.60;5.70;;;;;;;3.47;91.52;100961.10;105476;1261;98469;-75
2023/04/06 12:52:20;;;;;;;11.90;6.10;;;;;;;3.45;91.23;100959.70;105620;1255;102475;-78